createdAt,value
2022-12-11T14:21:07.857Z,-1.39
2022-12-11T14:28:43.858Z,-1.33
2022-12-11T14:36:19.592Z,-1.32
2022-12-11T14:43:57.718Z,-1.31
2022-12-11T14:51:38.935Z,-1.30
2022-12-11T14:59:26.914Z,-1.26
2022-12-11T15:07:22.009Z,-1.36
2022-12-11T15:14:58.884Z,-1.30
2022-12-11T15:22:34.668Z,-1.38
2022-12-11T15:30:28.233Z,-1.36
2022-12-11T15:38:03.615Z,-1.37
2022-12-11T15:45:37.566Z,-1.34
2022-12-11T15:53:12.770Z,-1.34
2022-12-11T16:00:46.832Z,-1.38
2022-12-11T16:08:24.847Z,-1.43
2022-12-11T16:15:58.844Z,-1.35
2022-12-11T16:23:34.079Z,-1.36
2022-12-11T16:31:12.117Z,-1.37
2022-12-11T16:38:53.123Z,-1.40
2022-12-11T16:46:27.999Z,-1.38
2022-12-11T16:54:03.446Z,-1.44
2022-12-11T17:01:37.296Z,-1.42
2022-12-11T17:09:12.536Z,-1.41
2022-12-11T17:16:46.819Z,-1.45
2022-12-11T17:24:22.348Z,-1.46
2022-12-11T17:31:56.458Z,-1.37
2022-12-11T17:39:32.311Z,-1.36
2022-12-11T17:47:10.974Z,-1.35
2022-12-11T17:54:46.703Z,-1.32
2022-12-11T18:02:21.072Z,-1.33
2022-12-11T18:09:56.285Z,-1.25
2022-12-11T18:17:30.134Z,-1.33
2022-12-11T18:25:09.666Z,-1.35
2022-12-11T18:32:46.243Z,-1.35
2022-12-11T18:40:21.628Z,-1.36
2022-12-11T18:47:56.574Z,-1.36
2022-12-11T18:55:33.168Z,-1.37
2022-12-11T19:03:07.561Z,-1.41
2022-12-11T19:10:44.820Z,-1.37
2022-12-11T19:18:18.777Z,-1.36
2022-12-11T19:25:55.219Z,-1.45
2022-12-11T19:33:29.375Z,-1.51
2022-12-11T19:41:08.855Z,-1.50
2022-12-11T19:48:43.524Z,-1.57
2022-12-11T19:56:20.280Z,-1.62
2022-12-11T20:03:54.320Z,-1.57
2022-12-11T20:11:29.835Z,-1.57
2022-12-11T20:19:05.134Z,-1.55
2022-12-11T20:26:41.723Z,-1.51
2022-12-11T20:34:15.591Z,-1.52
2022-12-11T20:41:50.923Z,-1.52
2022-12-11T20:49:25.085Z,-1.55
2022-12-11T20:57:00.547Z,-1.51
2022-12-11T21:04:34.394Z,-1.51
2022-12-11T21:12:09.974Z,-1.53
2022-12-11T21:19:43.800Z,-1.45
2022-12-11T21:27:19.150Z,-1.46
2022-12-11T21:34:55.391Z,-1.44
2022-12-11T21:42:30.585Z,-1.40
2022-12-11T21:50:05.047Z,-1.40
2022-12-11T21:57:40.236Z,-1.40
2022-12-11T22:05:14.303Z,-1.44
2022-12-11T22:12:50.053Z,-1.38
2022-12-11T22:20:24.066Z,-1.38
2022-12-11T22:27:59.603Z,-1.38
2022-12-11T22:35:33.522Z,-1.45
2022-12-11T22:43:08.581Z,-1.46
2022-12-11T22:50:42.744Z,-1.39
2022-12-11T22:58:21.758Z,-1.47
2022-12-11T23:05:58.753Z,-1.51
2022-12-11T23:13:36.040Z,-1.46
2022-12-11T23:21:11.364Z,-1.42
2022-12-11T23:28:47.385Z,-1.52
2022-12-11T23:36:21.381Z,-1.50
2022-12-11T23:43:56.583Z,-1.48
2022-12-11T23:51:30.575Z,-1.39
2022-12-11T23:59:06.089Z,-1.40
